sensor_id;sensor_type;location;lat;lon;timestamp;pressure;altitude;pressure_sealevel;temperature;humidity
84696;BME280;74913;40.204;44.532;2023-12-29T00:01:54;88790.03;;;4.84;32.60
84696;BME280;74913;40.204;44.532;2023-12-29T00:04:20;88781.03;;;4.82;33.11
84696;BME280;74913;40.204;44.532;2023-12-29T00:06:45;88785.84;;;4.78;32.91
84696;BME280;74913;40.204;44.532;2023-12-29T00:09:11;88772.81;;;4.65;32.95
84696;BME280;74913;40.204;44.532;2023-12-29T00:11:38;88784.75;;;4.70;32.60
84696;BME280;74913;40.204;44.532;2023-12-29T00:14:04;88792.66;;;4.64;32.63
84696;BME280;74913;40.204;44.532;2023-12-29T00:16:30;88784.56;;;4.59;33.04
84696;BME280;74913;40.204;44.532;2023-12-29T00:18:55;88786.94;;;4.57;33.08
84696;BME280;74913;40.204;44.532;2023-12-29T00:21:21;88792.56;;;4.59;33.11
84696;BME280;74913;40.204;44.532;2023-12-29T00:23:47;88793.56;;;4.61;32.61
84696;BME280;74913;40.204;44.532;2023-12-29T00:26:16;88797.22;;;4.64;32.99
84696;BME280;74913;40.204;44.532;2023-12-29T00:28:43;88790.72;;;4.65;32.89
84696;BME280;74913;40.204;44.532;2023-12-29T00:31:08;88789.25;;;4.64;32.83
84696;BME280;74913;40.204;44.532;2023-12-29T00:33:34;88790.44;;;4.63;32.84
84696;BME280;74913;40.204;44.532;2023-12-29T00:36:00;88796.69;;;4.60;32.89
84696;BME280;74913;40.204;44.532;2023-12-29T00:38:26;88791.38;;;4.60;32.99
84696;BME280;74913;40.204;44.532;2023-12-29T00:40:52;88783.09;;;4.58;32.95
84696;BME280;74913;40.204;44.532;2023-12-29T00:43:18;88781.63;;;4.57;33.02
84696;BME280;74913;40.204;44.532;2023-12-29T00:45:44;88785.69;;;4.52;32.69
84696;BME280;74913;40.204;44.532;2023-12-29T00:48:09;88790.25;;;4.51;33.32
84696;BME280;74913;40.204;44.532;2023-12-29T00:50:35;88791.19;;;4.48;33.45
84696;BME280;74913;40.204;44.532;2023-12-29T00:53:01;88796.50;;;4.48;33.47
84696;BME280;74913;40.204;44.532;2023-12-29T00:55:26;88794.50;;;4.43;33.28
84696;BME280;74913;40.204;44.532;2023-12-29T00:57:52;88801.03;;;4.42;33.50
84696;BME280;74913;40.204;44.532;2023-12-29T01:00:21;88788.09;;;4.35;33.08
84696;BME280;74913;40.204;44.532;2023-12-29T01:02:47;88789.53;;;4.36;33.44
84696;BME280;74913;40.204;44.532;2023-12-29T01:05:16;88778.34;;;4.32;33.79
84696;BME280;74913;40.204;44.532;2023-12-29T01:07:42;88773.38;;;4.25;33.71
84696;BME280;74913;40.204;44.532;2023-12-29T01:10:08;88795.50;;;4.31;33.96
84696;BME280;74913;40.204;44.532;2023-12-29T01:12:34;88792.84;;;4.31;33.78
84696;BME280;74913;40.204;44.532;2023-12-29T01:15:00;88783.13;;;4.28;33.81
84696;BME280;74913;40.204;44.532;2023-12-29T01:17:25;88786.69;;;4.25;33.72
84696;BME280;74913;40.204;44.532;2023-12-29T01:19:53;88791.56;;;4.27;33.80
84696;BME280;74913;40.204;44.532;2023-12-29T01:22:19;88780.63;;;4.25;33.69
84696;BME280;74913;40.204;44.532;2023-12-29T01:24:45;88780.09;;;4.21;34.18
84696;BME280;74913;40.204;44.532;2023-12-29T01:27:10;88778.25;;;4.12;34.06
84696;BME280;74913;40.204;44.532;2023-12-29T01:29:36;88789.72;;;4.18;33.90
84696;BME280;74913;40.204;44.532;2023-12-29T01:32:02;88789.44;;;4.16;33.95
84696;BME280;74913;40.204;44.532;2023-12-29T01:34:29;88786.97;;;4.13;34.23
84696;BME280;74913;40.204;44.532;2023-12-29T01:37:02;88788.91;;;4.12;34.23
84696;BME280;74913;40.204;44.532;2023-12-29T01:39:29;88782.44;;;4.04;33.90
84696;BME280;74913;40.204;44.532;2023-12-29T01:41:58;88788.06;;;4.06;34.62
84696;BME280;74913;40.204;44.532;2023-12-29T01:44:24;88789.00;;;4.03;34.38
84696;BME280;74913;40.204;44.532;2023-12-29T01:46:50;88793.38;;;4.06;34.03
84696;BME280;74913;40.204;44.532;2023-12-29T01:49:17;88791.91;;;4.05;34.47
84696;BME280;74913;40.204;44.532;2023-12-29T01:51:52;88750.03;;;3.76;34.46
84696;BME280;74913;40.204;44.532;2023-12-29T01:54:20;88783.56;;;3.98;34.51
84696;BME280;74913;40.204;44.532;2023-12-29T01:56:49;88781.06;;;3.94;34.42
84696;BME280;74913;40.204;44.532;2023-12-29T01:59:16;88789.53;;;3.93;34.65
84696;BME280;74913;40.204;44.532;2023-12-29T02:01:42;88788.50;;;3.90;34.46
84696;BME280;74913;40.204;44.532;2023-12-29T02:04:09;88793.56;;;3.88;34.48
84696;BME280;74913;40.204;44.532;2023-12-29T02:06:38;88793.72;;;3.84;34.61
84696;BME280;74913;40.204;44.532;2023-12-29T02:09:05;88794.19;;;3.83;34.69
84696;BME280;74913;40.204;44.532;2023-12-29T02:11:31;88790.41;;;3.75;34.76
84696;BME280;74913;40.204;44.532;2023-12-29T02:13:58;88783.59;;;3.74;34.85
84696;BME280;74913;40.204;44.532;2023-12-29T02:16:55;88789.94;;;3.76;34.80
84696;BME280;74913;40.204;44.532;2023-12-29T02:21:56;88792.22;;;3.69;34.89
84696;BME280;74913;40.204;44.532;2023-12-29T02:24:21;88794.13;;;3.68;34.91
84696;BME280;74913;40.204;44.532;2023-12-29T02:26:50;88786.34;;;3.65;34.85
84696;BME280;74913;40.204;44.532;2023-12-29T02:29:19;88787.78;;;3.66;34.88
84696;BME280;74913;40.204;44.532;2023-12-29T02:31:50;88784.13;;;3.63;34.88
84696;BME280;74913;40.204;44.532;2023-12-29T02:34:19;88781.38;;;3.58;35.33
84696;BME280;74913;40.204;44.532;2023-12-29T02:36:46;88788.44;;;3.61;35.08
84696;BME280;74913;40.204;44.532;2023-12-29T02:39:13;88789.63;;;3.60;35.04
84696;BME280;74913;40.204;44.532;2023-12-29T02:41:39;88788.34;;;3.55;35.20
84696;BME280;74913;40.204;44.532;2023-12-29T02:44:05;88780.69;;;3.48;35.36
84696;BME280;74913;40.204;44.532;2023-12-29T02:46:31;88785.91;;;3.43;35.60
84696;BME280;74913;40.204;44.532;2023-12-29T02:48:56;88782.97;;;3.41;35.49
84696;BME280;74913;40.204;44.532;2023-12-29T02:51:22;88781.22;;;3.38;36.13
84696;BME280;74913;40.204;44.532;2023-12-29T02:53:47;88780.94;;;3.36;35.55
84696;BME280;74913;40.204;44.532;2023-12-29T02:56:14;88785.06;;;3.37;35.30
84696;BME280;74913;40.204;44.532;2023-12-29T02:58:40;88786.97;;;3.36;35.51
84696;BME280;74913;40.204;44.532;2023-12-29T03:01:05;88784.78;;;3.35;35.60
84696;BME280;74913;40.204;44.532;2023-12-29T03:03:31;88787.72;;;3.37;35.63
84696;BME280;74913;40.204;44.532;2023-12-29T03:05:57;88789.22;;;3.38;35.79
84696;BME280;74913;40.204;44.532;2023-12-29T03:08:22;88789.47;;;3.40;35.44
84696;BME280;74913;40.204;44.532;2023-12-29T03:10:48;88792.13;;;3.40;35.52
84696;BME280;74913;40.204;44.532;2023-12-29T03:13:14;88798.19;;;3.40;35.40
84696;BME280;74913;40.204;44.532;2023-12-29T03:15:39;88789.22;;;3.38;35.38
84696;BME280;74913;40.204;44.532;2023-12-29T03:18:05;88801.31;;;3.39;35.13
84696;BME280;74913;40.204;44.532;2023-12-29T03:20:31;88811.66;;;3.37;35.36
84696;BME280;74913;40.204;44.532;2023-12-29T03:22:56;88810.63;;;3.34;35.33
84696;BME280;74913;40.204;44.532;2023-12-29T03:25:22;88803.13;;;3.33;35.40
84696;BME280;74913;40.204;44.532;2023-12-29T03:27:48;88813.75;;;3.33;35.38
84696;BME280;74913;40.204;44.532;2023-12-29T03:30:13;88808.59;;;3.29;35.41
84696;BME280;74913;40.204;44.532;2023-12-29T03:32:39;88804.09;;;3.20;35.40
84696;BME280;74913;40.204;44.532;2023-12-29T03:35:05;88817.59;;;3.32;35.36
84696;BME280;74913;40.204;44.532;2023-12-29T03:37:31;88810.09;;;3.30;35.44
84696;BME280;74913;40.204;44.532;2023-12-29T03:39:56;88811.72;;;3.28;35.74
84696;BME280;74913;40.204;44.532;2023-12-29T03:42:22;88812.63;;;3.24;35.40
84696;BME280;74913;40.204;44.532;2023-12-29T03:44:47;88808.94;;;3.22;35.91
84696;BME280;74913;40.204;44.532;2023-12-29T03:47:13;88820.47;;;3.19;35.35
84696;BME280;74913;40.204;44.532;2023-12-29T03:49:39;88824.50;;;3.14;35.53
84696;BME280;74913;40.204;44.532;2023-12-29T03:52:04;88821.28;;;3.10;35.85
84696;BME280;74913;40.204;44.532;2023-12-29T03:54:30;88827.63;;;3.13;35.68
84696;BME280;74913;40.204;44.532;2023-12-29T03:56:56;88825.41;;;3.11;35.58
84696;BME280;74913;40.204;44.532;2023-12-29T03:59:21;88824.84;;;3.07;36.01
84696;BME280;74913;40.204;44.532;2023-12-29T04:01:47;88829.13;;;3.05;35.91
84696;BME280;74913;40.204;44.532;2023-12-29T04:04:13;88835.81;;;3.00;36.23
84696;BME280;74913;40.204;44.532;2023-12-29T04:06:38;88835.06;;;3.00;36.45
84696;BME280;74913;40.204;44.532;2023-12-29T04:09:04;88839.63;;;2.99;36.35
84696;BME280;74913;40.204;44.532;2023-12-29T04:11:30;88841.13;;;3.00;36.17
84696;BME280;74913;40.204;44.532;2023-12-29T04:13:56;88843.47;;;2.98;36.49
84696;BME280;74913;40.204;44.532;2023-12-29T04:16:21;88850.25;;;2.99;36.45
84696;BME280;74913;40.204;44.532;2023-12-29T04:18:47;88839.63;;;2.99;36.91
84696;BME280;74913;40.204;44.532;2023-12-29T04:21:16;88851.75;;;3.00;36.38
84696;BME280;74913;40.204;44.532;2023-12-29T04:23:41;88856.59;;;3.02;36.60
84696;BME280;74913;40.204;44.532;2023-12-29T04:26:07;88858.81;;;3.03;36.50
84696;BME280;74913;40.204;44.532;2023-12-29T04:28:33;88861.47;;;3.03;36.90
84696;BME280;74913;40.204;44.532;2023-12-29T04:30:59;88862.94;;;3.04;36.66
84696;BME280;74913;40.204;44.532;2023-12-29T04:33:24;88851.75;;;3.00;36.62
84696;BME280;74913;40.204;44.532;2023-12-29T04:35:50;88867.09;;;3.05;36.68
84696;BME280;74913;40.204;44.532;2023-12-29T04:38:16;88871.19;;;3.06;36.64
84696;BME280;74913;40.204;44.532;2023-12-29T04:40:43;88874.75;;;3.03;36.85
84696;BME280;74913;40.204;44.532;2023-12-29T04:43:09;88873.00;;;3.00;36.93
84696;BME280;74913;40.204;44.532;2023-12-29T04:45:34;88871.53;;;2.99;37.21
84696;BME280;74913;40.204;44.532;2023-12-29T04:48:00;88867.69;;;3.00;37.31
84696;BME280;74913;40.204;44.532;2023-12-29T04:50:26;88871.38;;;3.03;37.15
84696;BME280;74913;40.204;44.532;2023-12-29T04:52:51;88869.75;;;3.05;37.32
84696;BME280;74913;40.204;44.532;2023-12-29T04:55:17;88871.78;;;3.10;37.26
84696;BME280;74913;40.204;44.532;2023-12-29T04:57:43;88864.44;;;3.05;37.00
84696;BME280;74913;40.204;44.532;2023-12-29T05:00:08;88889.16;;;3.20;36.93
84696;BME280;74913;40.204;44.532;2023-12-29T05:02:34;88884.13;;;3.22;37.00
84696;BME280;74913;40.204;44.532;2023-12-29T05:05:00;88887.00;;;3.34;36.82
84696;BME280;74913;40.204;44.532;2023-12-29T05:07:26;88884.06;;;3.41;37.21
84696;BME280;74913;40.204;44.532;2023-12-29T05:09:52;88889.03;;;3.48;36.42
84696;BME280;74913;40.204;44.532;2023-12-29T05:12:18;88890.72;;;3.60;36.49
84696;BME280;74913;40.204;44.532;2023-12-29T05:14:43;88882.13;;;3.65;36.42
84696;BME280;74913;40.204;44.532;2023-12-29T05:17:09;88891.13;;;3.67;36.33
84696;BME280;74913;40.204;44.532;2023-12-29T05:19:35;88891.88;;;3.68;36.16
84696;BME280;74913;40.204;44.532;2023-12-29T05:22:00;88894.63;;;3.73;36.18
84696;BME280;74913;40.204;44.532;2023-12-29T05:24:26;88877.00;;;3.76;35.94
84696;BME280;74913;40.204;44.532;2023-12-29T05:26:51;88892.47;;;3.86;35.66
84696;BME280;74913;40.204;44.532;2023-12-29T05:29:17;88891.41;;;3.93;35.59
84696;BME280;74913;40.204;44.532;2023-12-29T05:31:43;88900.81;;;4.03;35.40
84696;BME280;74913;40.204;44.532;2023-12-29T05:34:08;88898.06;;;4.12;35.38
84696;BME280;74913;40.204;44.532;2023-12-29T05:36:37;88900.09;;;4.17;35.22
84696;BME280;74913;40.204;44.532;2023-12-29T05:39:04;88905.06;;;4.24;35.37
84696;BME280;74913;40.204;44.532;2023-12-29T05:41:29;88902.03;;;4.31;35.21
84696;BME280;74913;40.204;44.532;2023-12-29T05:43:55;88899.75;;;4.39;35.27
84696;BME280;74913;40.204;44.532;2023-12-29T05:46:23;88897.75;;;4.48;35.17
84696;BME280;74913;40.204;44.532;2023-12-29T05:48:49;88882.88;;;4.42;34.94
84696;BME280;74913;40.204;44.532;2023-12-29T05:51:14;88905.47;;;4.61;35.31
84696;BME280;74913;40.204;44.532;2023-12-29T05:53:40;88908.81;;;4.71;34.81
84696;BME280;74913;40.204;44.532;2023-12-29T05:56:06;88906.97;;;4.77;34.86
84696;BME280;74913;40.204;44.532;2023-12-29T05:58:32;88910.47;;;4.83;34.74
84696;BME280;74913;40.204;44.532;2023-12-29T06:00:58;88913.94;;;4.89;34.45
84696;BME280;74913;40.204;44.532;2023-12-29T06:03:27;88919.28;;;4.89;34.54
84696;BME280;74913;40.204;44.532;2023-12-29T06:05:53;88924.63;;;4.89;34.64
84696;BME280;74913;40.204;44.532;2023-12-29T06:08:18;88926.28;;;4.86;34.70
84696;BME280;74913;40.204;44.532;2023-12-29T06:10:44;88929.69;;;4.87;34.94
84696;BME280;74913;40.204;44.532;2023-12-29T06:13:10;88929.41;;;4.85;34.72
84696;BME280;74913;40.204;44.532;2023-12-29T06:15:35;88931.44;;;4.90;35.17
84696;BME280;74913;40.204;44.532;2023-12-29T06:18:02;88943.84;;;4.93;35.10
84696;BME280;74913;40.204;44.532;2023-12-29T06:20:27;88937.31;;;4.94;35.12
84696;BME280;74913;40.204;44.532;2023-12-29T06:22:53;88945.88;;;4.98;35.09
84696;BME280;74913;40.204;44.532;2023-12-29T06:25:19;88948.97;;;4.96;35.11
84696;BME280;74913;40.204;44.532;2023-12-29T06:27:44;88950.00;;;4.99;35.30
84696;BME280;74913;40.204;44.532;2023-12-29T06:30:10;88950.00;;;4.99;34.96
84696;BME280;74913;40.204;44.532;2023-12-29T06:32:36;88958.28;;;5.01;35.36
84696;BME280;74913;40.204;44.532;2023-12-29T06:35:02;88960.31;;;5.06;34.93
84696;BME280;74913;40.204;44.532;2023-12-29T06:37:28;88967.94;;;5.13;35.31
84696;BME280;74913;40.204;44.532;2023-12-29T06:39:54;88945.50;;;5.05;35.27
84696;BME280;74913;40.204;44.532;2023-12-29T06:42:19;88952.22;;;5.15;35.41
84696;BME280;74913;40.204;44.532;2023-12-29T06:44:46;88961.31;;;5.23;34.82
84696;BME280;74913;40.204;44.532;2023-12-29T06:47:12;88958.91;;;5.25;34.99
84696;BME280;74913;40.204;44.532;2023-12-29T06:49:39;88960.69;;;5.28;35.32
84696;BME280;74913;40.204;44.532;2023-12-29T06:52:04;88966.56;;;5.32;34.58
84696;BME280;74913;40.204;44.532;2023-12-29T06:54:30;88966.81;;;5.34;35.02
84696;BME280;74913;40.204;44.532;2023-12-29T06:56:56;88967.66;;;5.40;34.97
84696;BME280;74913;40.204;44.532;2023-12-29T06:59:22;88977.22;;;5.47;34.78
84696;BME280;74913;40.204;44.532;2023-12-29T07:01:48;88976.03;;;5.48;34.67
84696;BME280;74913;40.204;44.532;2023-12-29T07:04:14;88973.78;;;5.46;34.07
84696;BME280;74913;40.204;44.532;2023-12-29T07:06:40;88975.53;;;5.49;34.51
84696;BME280;74913;40.204;44.532;2023-12-29T07:09:06;88985.56;;;5.54;34.65
84696;BME280;74913;40.204;44.532;2023-12-29T07:11:33;88985.84;;;5.56;34.42
84696;BME280;74913;40.204;44.532;2023-12-29T07:13:59;88978.78;;;5.53;35.14
84696;BME280;74913;40.204;44.532;2023-12-29T07:16:24;88989.53;;;5.59;34.70
84696;BME280;74913;40.204;44.532;2023-12-29T07:18:50;88985.75;;;5.65;34.78
84696;BME280;74913;40.204;44.532;2023-12-29T07:21:16;88977.34;;;5.72;34.54
84696;BME280;74913;40.204;44.532;2023-12-29T07:23:42;88990.59;;;5.81;34.44
84696;BME280;74913;40.204;44.532;2023-12-29T07:26:08;88973.56;;;5.79;34.73
84696;BME280;74913;40.204;44.532;2023-12-29T07:28:34;88987.94;;;5.96;34.98
84696;BME280;74913;40.204;44.532;2023-12-29T07:31:00;88989.47;;;6.03;34.59
84696;BME280;74913;40.204;44.532;2023-12-29T07:33:26;88983.00;;;6.09;34.23
84696;BME280;74913;40.204;44.532;2023-12-29T07:35:52;88992.56;;;6.16;34.09
84696;BME280;74913;40.204;44.532;2023-12-29T07:38:17;88999.63;;;6.19;33.96
84696;BME280;74913;40.204;44.532;2023-12-29T07:40:43;88990.44;;;6.20;34.41
84696;BME280;74913;40.204;44.532;2023-12-29T07:43:09;88991.44;;;6.22;34.19
84696;BME280;74913;40.204;44.532;2023-12-29T07:45:35;88983.69;;;6.24;34.34
84696;BME280;74913;40.204;44.532;2023-12-29T07:48:03;88982.00;;;6.27;33.78
84696;BME280;74913;40.204;44.532;2023-12-29T07:50:29;88981.63;;;6.34;33.79
84696;BME280;74913;40.204;44.532;2023-12-29T07:52:55;88981.75;;;6.45;33.86
84696;BME280;74913;40.204;44.532;2023-12-29T07:55:21;88978.03;;;6.57;34.01
84696;BME280;74913;40.204;44.532;2023-12-29T07:57:46;88977.41;;;6.68;33.10
84696;BME280;74913;40.204;44.532;2023-12-29T08:00:15;88975.34;;;6.77;33.30
84696;BME280;74913;40.204;44.532;2023-12-29T08:02:41;88972.97;;;6.85;33.77
84696;BME280;74913;40.204;44.532;2023-12-29T08:05:07;88965.28;;;6.92;33.80
84696;BME280;74913;40.204;44.532;2023-12-29T08:07:36;88970.53;;;7.07;33.67
84696;BME280;74913;40.204;44.532;2023-12-29T08:10:05;88974.53;;;7.17;33.67
84696;BME280;74913;40.204;44.532;2023-12-29T08:12:32;88970.97;;;7.26;33.25
84696;BME280;74913;40.204;44.532;2023-12-29T08:14:59;88962.00;;;7.29;33.55
84696;BME280;74913;40.204;44.532;2023-12-29T08:17:25;88954.16;;;7.25;32.84
84696;BME280;74913;40.204;44.532;2023-12-29T08:19:51;88956.09;;;7.25;33.11
84696;BME280;74913;40.204;44.532;2023-12-29T08:22:17;88963.72;;;7.32;32.65
84696;BME280;74913;40.204;44.532;2023-12-29T08:24:42;88955.22;;;7.33;32.28
84696;BME280;74913;40.204;44.532;2023-12-29T08:27:14;88953.31;;;7.39;32.32
84696;BME280;74913;40.204;44.532;2023-12-29T08:29:40;88952.69;;;7.50;33.04
84696;BME280;74913;40.204;44.532;2023-12-29T08:32:07;88947.41;;;7.61;32.29
84696;BME280;74913;40.204;44.532;2023-12-29T08:34:32;88939.88;;;7.65;32.75
84696;BME280;74913;40.204;44.532;2023-12-29T08:36:59;88938.00;;;7.71;32.32
84696;BME280;74913;40.204;44.532;2023-12-29T08:39:25;88938.75;;;7.77;32.16
84696;BME280;74913;40.204;44.532;2023-12-29T08:41:51;88945.34;;;7.82;32.56
84696;BME280;74913;40.204;44.532;2023-12-29T08:44:17;88947.81;;;7.85;32.36
84696;BME280;74913;40.204;44.532;2023-12-29T08:46:42;88930.56;;;7.86;32.44
84696;BME280;74913;40.204;44.532;2023-12-29T08:49:08;88934.72;;;7.93;32.66
84696;BME280;74913;40.204;44.532;2023-12-29T08:51:34;88926.47;;;7.96;32.37
84696;BME280;74913;40.204;44.532;2023-12-29T08:54:00;88919.22;;;8.08;31.98
84696;BME280;74913;40.204;44.532;2023-12-29T08:56:25;88911.72;;;8.17;32.47
84696;BME280;74913;40.204;44.532;2023-12-29T08:58:51;88915.94;;;8.29;32.16
84696;BME280;74913;40.204;44.532;2023-12-29T09:01:18;88906.50;;;8.45;32.14
84696;BME280;74913;40.204;44.532;2023-12-29T09:03:43;88901.94;;;8.57;32.08
84696;BME280;74913;40.204;44.532;2023-12-29T09:06:09;88899.28;;;8.68;32.00
84696;BME280;74913;40.204;44.532;2023-12-29T09:08:35;88899.56;;;8.81;31.65
84696;BME280;74913;40.204;44.532;2023-12-29T09:11:01;88902.53;;;8.88;31.91
84696;BME280;74913;40.204;44.532;2023-12-29T09:13:27;88895.19;;;8.83;31.63
84696;BME280;74913;40.204;44.532;2023-12-29T09:15:55;88891.75;;;8.77;31.84
84696;BME280;74913;40.204;44.532;2023-12-29T09:18:21;88896.38;;;8.77;32.47
84696;BME280;74913;40.204;44.532;2023-12-29T09:20:47;88878.81;;;8.70;31.57
84696;BME280;74913;40.204;44.532;2023-12-29T09:23:13;88879.31;;;8.69;32.62
84696;BME280;74913;40.204;44.532;2023-12-29T09:25:39;88866.34;;;8.62;32.08
84696;BME280;74913;40.204;44.532;2023-12-29T09:28:05;88869.53;;;8.66;31.86
84696;BME280;74913;40.204;44.532;2023-12-29T09:30:30;88873.47;;;8.76;31.41
84696;BME280;74913;40.204;44.532;2023-12-29T09:32:56;88861.00;;;8.67;32.52
84696;BME280;74913;40.204;44.532;2023-12-29T09:35:22;88868.84;;;8.76;31.66
84696;BME280;74913;40.204;44.532;2023-12-29T09:37:48;88862.22;;;8.72;31.97
84696;BME280;74913;40.204;44.532;2023-12-29T09:40:16;88867.09;;;8.68;31.73
84696;BME280;74913;40.204;44.532;2023-12-29T09:42:43;88866.84;;;8.60;31.38
84696;BME280;74913;40.204;44.532;2023-12-29T09:45:11;88859.03;;;8.51;32.01
84696;BME280;74913;40.204;44.532;2023-12-29T09:47:42;88857.50;;;8.45;31.87
84696;BME280;74913;40.204;44.532;2023-12-29T09:50:10;88822.56;;;8.22;31.87
84696;BME280;74913;40.204;44.532;2023-12-29T09:52:40;88844.56;;;8.26;32.19
84696;BME280;74913;40.204;44.532;2023-12-29T09:55:10;88836.22;;;8.19;31.71
84696;BME280;74913;40.204;44.532;2023-12-29T09:57:40;88843.00;;;8.14;32.58
84696;BME280;74913;40.204;44.532;2023-12-29T10:00:07;88832.28;;;8.14;32.41
84696;BME280;74913;40.204;44.532;2023-12-29T10:02:36;88827.19;;;8.16;32.90
84696;BME280;74913;40.204;44.532;2023-12-29T10:05:03;88817.91;;;8.12;32.42
84696;BME280;74913;40.204;44.532;2023-12-29T10:07:32;88821.13;;;8.21;32.30
84696;BME280;74913;40.204;44.532;2023-12-29T10:10:01;88817.69;;;8.15;32.54
84696;BME280;74913;40.204;44.532;2023-12-29T10:12:29;88820.13;;;8.13;32.58
84696;BME280;74913;40.204;44.532;2023-12-29T10:15:04;88810.13;;;8.14;31.80
84696;BME280;74913;40.204;44.532;2023-12-29T10:20:47;88808.16;;;8.14;31.69
84696;BME280;74913;40.204;44.532;2023-12-29T10:23:17;88810.84;;;8.14;32.35
84696;BME280;74913;40.204;44.532;2023-12-29T10:25:43;88811.81;;;8.11;31.81
84696;BME280;74913;40.204;44.532;2023-12-29T10:28:12;88803.75;;;8.06;31.35
84696;BME280;74913;40.204;44.532;2023-12-29T10:30:38;88800.09;;;8.03;31.33
84696;BME280;74913;40.204;44.532;2023-12-29T10:33:05;88801.31;;;8.08;31.73
84696;BME280;74913;40.204;44.532;2023-12-29T10:35:31;88797.94;;;8.13;31.13
84696;BME280;74913;40.204;44.532;2023-12-29T10:38:12;88806.00;;;8.18;31.51
84696;BME280;74913;40.204;44.532;2023-12-29T10:40:39;88792.84;;;8.20;31.27
84696;BME280;74913;40.204;44.532;2023-12-29T10:43:05;88797.00;;;8.21;31.15
84696;BME280;74913;40.204;44.532;2023-12-29T10:45:33;88794.81;;;8.25;31.26
84696;BME280;74913;40.204;44.532;2023-12-29T10:48:02;88787.03;;;8.27;31.08
84696;BME280;74913;40.204;44.532;2023-12-29T10:50:28;88778.72;;;8.25;30.74
84696;BME280;74913;40.204;44.532;2023-12-29T10:53:13;88785.59;;;8.26;31.17
84696;BME280;74913;40.204;44.532;2023-12-29T10:55:39;88777.78;;;8.28;30.88
84696;BME280;74913;40.204;44.532;2023-12-29T10:58:05;88773.38;;;8.25;31.00
84696;BME280;74913;40.204;44.532;2023-12-29T11:00:31;88772.44;;;8.28;30.60
84696;BME280;74913;40.204;44.532;2023-12-29T11:03:00;88776.03;;;8.25;31.12
84696;BME280;74913;40.204;44.532;2023-12-29T11:05:26;88775.81;;;8.23;31.06
84696;BME280;74913;40.204;44.532;2023-12-29T11:07:54;88779.94;;;8.24;30.84
84696;BME280;74913;40.204;44.532;2023-12-29T11:10:21;88774.31;;;8.22;30.83
84696;BME280;74913;40.204;44.532;2023-12-29T11:12:47;88767.53;;;8.21;30.83
84696;BME280;74913;40.204;44.532;2023-12-29T11:15:15;88769.47;;;8.21;30.60
84696;BME280;74913;40.204;44.532;2023-12-29T11:17:44;88766.53;;;8.24;30.45
84696;BME280;74913;40.204;44.532;2023-12-29T11:20:16;88771.88;;;8.24;30.95
84696;BME280;74913;40.204;44.532;2023-12-29T11:22:43;88767.53;;;8.21;31.00
84696;BME280;74913;40.204;44.532;2023-12-29T11:25:09;88766.03;;;8.20;30.63
84696;BME280;74913;40.204;44.532;2023-12-29T11:27:35;88765.09;;;8.23;30.94
84696;BME280;74913;40.204;44.532;2023-12-29T11:30:02;88765.09;;;8.23;31.11
84696;BME280;74913;40.204;44.532;2023-12-29T11:32:41;88773.13;;;8.23;30.87
84696;BME280;74913;40.204;44.532;2023-12-29T11:35:13;88764.34;;;8.23;31.05
84696;BME280;74913;40.204;44.532;2023-12-29T11:40:42;88773.59;;;8.22;31.03
84696;BME280;74913;40.204;44.532;2023-12-29T11:43:14;88762.88;;;8.22;31.06
84696;BME280;74913;40.204;44.532;2023-12-29T11:45:41;88770.97;;;8.27;31.60
84696;BME280;74913;40.204;44.532;2023-12-29T11:48:07;88768.28;;;8.33;31.17
84696;BME280;74913;40.204;44.532;2023-12-29T11:50:36;88775.13;;;8.39;31.00
84696;BME280;74913;40.204;44.532;2023-12-29T11:53:04;88776.56;;;8.35;31.01
84696;BME280;74913;40.204;44.532;2023-12-29T11:55:33;88773.16;;;8.34;30.83
84696;BME280;74913;40.204;44.532;2023-12-29T11:58:00;88773.63;;;8.27;30.84
84696;BME280;74913;40.204;44.532;2023-12-29T12:00:42;88776.56;;;8.29;30.77
84696;BME280;74913;40.204;44.532;2023-12-29T12:03:25;88779.94;;;8.24;30.61
84696;BME280;74913;40.204;44.532;2023-12-29T12:05:53;88776.53;;;8.24;31.51
84696;BME280;74913;40.204;44.532;2023-12-29T12:08:36;88782.84;;;8.21;30.91
84696;BME280;74913;40.204;44.532;2023-12-29T12:14:01;88781.88;;;8.18;31.23
84696;BME280;74913;40.204;44.532;2023-12-29T12:19:10;88784.56;;;8.18;31.12
84696;BME280;74913;40.204;44.532;2023-12-29T12:21:40;88789.91;;;8.18;31.12
84696;BME280;74913;40.204;44.532;2023-12-29T12:24:06;88789.69;;;8.16;31.50
84696;BME280;74913;40.204;44.532;2023-12-29T12:26:33;88784.03;;;8.14;31.20
84696;BME280;74913;40.204;44.532;2023-12-29T12:29:00;88781.38;;;8.14;31.62
84696;BME280;74913;40.204;44.532;2023-12-29T12:31:26;88779.66;;;8.11;30.87
84696;BME280;74913;40.204;44.532;2023-12-29T12:33:55;88784.78;;;8.15;30.82
84696;BME280;74913;40.204;44.532;2023-12-29T12:36:21;88786.22;;;8.10;31.25
84696;BME280;74913;40.204;44.532;2023-12-29T12:38:54;88787.44;;;8.09;31.42
84696;BME280;74913;40.204;44.532;2023-12-29T12:41:21;88789.88;;;8.07;30.74
84696;BME280;74913;40.204;44.532;2023-12-29T12:43:58;88771.81;;;7.91;31.18
84696;BME280;74913;40.204;44.532;2023-12-29T12:46:26;88794.22;;;7.99;31.44
84696;BME280;74913;40.204;44.532;2023-12-29T12:48:53;88795.91;;;7.97;31.11
84696;BME280;74913;40.204;44.532;2023-12-29T12:51:20;88793.72;;;7.95;31.25
84696;BME280;74913;40.204;44.532;2023-12-29T12:53:47;88790.28;;;7.89;31.46
84696;BME280;74913;40.204;44.532;2023-12-29T12:56:15;88796.88;;;7.88;31.97
84696;BME280;74913;40.204;44.532;2023-12-29T12:58:41;88784.66;;;7.82;30.90
84696;BME280;74913;40.204;44.532;2023-12-29T13:01:07;88799.31;;;7.86;31.33
84696;BME280;74913;40.204;44.532;2023-12-29T13:03:33;88796.84;;;7.83;31.42
84696;BME280;74913;40.204;44.532;2023-12-29T13:06:00;88789.03;;;7.73;31.38
84696;BME280;74913;40.204;44.532;2023-12-29T13:08:26;88797.78;;;7.74;31.14
84696;BME280;74913;40.204;44.532;2023-12-29T13:10:53;88799.94;;;7.70;31.35
84696;BME280;74913;40.204;44.532;2023-12-29T13:13:18;88802.63;;;7.70;31.80